sensor_id;sensor_type;location;lat;lon;timestamp;P1;P2;P0
57798;PMS7003;43626;53.866;30.298;2022-10-28T00:04:25;9;6.4;4.2
57798;PMS7003;43626;53.866;30.298;2022-10-28T00:09:39;8.4;6.8;4.2
57798;PMS7003;43626;53.866;30.298;2022-10-28T00:14:11;6.6;6;4
57798;PMS7003;43626;53.866;30.298;2022-10-28T00:19:39;7.2;6.2;4.2
57798;PMS7003;43626;53.866;30.298;2022-10-28T00:24:01;6.8;6;4
57798;PMS7003;43626;53.866;30.298;2022-10-28T00:29:39;8.2;7;4.4
57798;PMS7003;43626;53.866;30.298;2022-10-28T00:34:10;7.8;6.6;4.4
57798;PMS7003;43626;53.866;30.298;2022-10-28T00:39:23;8.4;7.2;4.8
57798;PMS7003;43626;53.866;30.298;2022-10-28T00:44:46;9;7.8;4.8
57798;PMS7003;43626;53.866;30.298;2022-10-28T00:49:03;8;7.8;4.5
57798;PMS7003;43626;53.866;30.298;2022-10-28T00:54:39;9.4;7.4;4.8
57798;PMS7003;43626;53.866;30.298;2022-10-28T00:59:39;10.2;9;5.6
57798;PMS7003;43626;53.866;30.298;2022-10-28T01:04:13;11.2;8.8;6
57798;PMS7003;43626;53.866;30.298;2022-10-28T01:09:13;10;7.8;5.6
57798;PMS7003;43626;53.866;30.298;2022-10-28T01:14:14;8.4;7.6;5.2
57798;PMS7003;43626;53.866;30.298;2022-10-28T01:19:18;9.2;7;4.6
57798;PMS7003;43626;53.866;30.298;2022-10-28T01:24:46;10.4;8.4;5.6
57798;PMS7003;43626;53.866;30.298;2022-10-28T01:29:36;10.6;8.8;5.6
57798;PMS7003;43626;53.866;30.298;2022-10-28T01:34:46;10.2;8.4;5.4
57798;PMS7003;43626;53.866;30.298;2022-10-28T01:39:03;9.8;8.6;6
57798;PMS7003;43626;53.866;30.298;2022-10-28T01:43:53;10.4;9.2;6.2
57798;PMS7003;43626;53.866;30.298;2022-10-28T01:48:51;10.3;9.8;6.5
57798;PMS7003;43626;53.866;30.298;2022-10-28T01:54:43;10.6;9;6
57798;PMS7003;43626;53.866;30.298;2022-10-28T01:59:31;11;9.2;5.8
57798;PMS7003;43626;53.866;30.298;2022-10-28T02:03:53;11.4;9.6;6
57798;PMS7003;43626;53.866;30.298;2022-10-28T02:09:07;11.6;9.6;6.8
57798;PMS7003;43626;53.866;30.298;2022-10-28T02:14:47;12.2;10.6;6.4
57798;PMS7003;43626;53.866;30.298;2022-10-28T02:19:42;12.2;10.6;6.4
57798;PMS7003;43626;53.866;30.298;2022-10-28T02:24:20;11.6;10.4;6.8
57798;PMS7003;43626;53.866;30.298;2022-10-28T02:29:05;12.2;10.6;7.4
57798;PMS7003;43626;53.866;30.298;2022-10-28T02:34:07;12.6;10.8;7
57798;PMS7003;43626;53.866;30.298;2022-10-28T02:39:41;12.8;10.4;7
57798;PMS7003;43626;53.866;30.298;2022-10-28T02:44:13;13.8;11.2;7.2
57798;PMS7003;43626;53.866;30.298;2022-10-28T02:49:21;12.8;10.2;6.4
57798;PMS7003;43626;53.866;30.298;2022-10-28T02:53:55;11;9.8;6
57798;PMS7003;43626;53.866;30.298;2022-10-28T02:59:07;13.6;10.6;7
57798;PMS7003;43626;53.866;30.298;2022-10-28T03:04:13;11.8;10.2;6.6
57798;PMS7003;43626;53.866;30.298;2022-10-28T03:09:31;11.4;9.4;5.8
57798;PMS7003;43626;53.866;30.298;2022-10-28T03:14:29;11.8;10.6;6.4
57798;PMS7003;43626;53.866;30.298;2022-10-28T03:18:53;13.2;9.4;5.8
57798;PMS7003;43626;53.866;30.298;2022-10-28T03:24:15;14.4;12.6;8
57798;PMS7003;43626;53.866;30.298;2022-10-28T03:29:41;14.8;12.8;8.2
57798;PMS7003;43626;53.866;30.298;2022-10-28T03:34:41;15.6;13;8.8
57798;PMS7003;43626;53.866;30.298;2022-10-28T03:39:07;12.8;11;6.8
57798;PMS7003;43626;53.866;30.298;2022-10-28T03:44:15;16.2;12.2;8.4
57798;PMS7003;43626;53.866;30.298;2022-10-28T03:49:05;12.6;10.8;7.8
57798;PMS7003;43626;53.866;30.298;2022-10-28T03:54:41;15.3;13.3;8
57798;PMS7003;43626;53.866;30.298;2022-10-28T03:59:15;16.4;13.6;8.4
57798;PMS7003;43626;53.866;30.298;2022-10-28T04:04:31;18;14.6;8.8
57798;PMS7003;43626;53.866;30.298;2022-10-28T04:09:01;16.6;14.2;8.6
57798;PMS7003;43626;53.866;30.298;2022-10-28T04:13:51;18;15.2;9.6
57798;PMS7003;43626;53.866;30.298;2022-10-28T04:19:13;17.4;15;9.4
57798;PMS7003;43626;53.866;30.298;2022-10-28T04:24:29;19.8;17.2;9.8
57798;PMS7003;43626;53.866;30.298;2022-10-28T04:29:31;16.8;15.8;9.4
57798;PMS7003;43626;53.866;30.298;2022-10-28T04:33:53;20;14.8;8.8
57798;PMS7003;43626;53.866;30.298;2022-10-28T04:38:51;21.8;16.2;9.6
57798;PMS7003;43626;53.866;30.298;2022-10-28T04:44:41;21.2;17.4;10.2
57798;PMS7003;43626;53.866;30.298;2022-10-28T04:49:41;20.4;16.4;9.8
57798;PMS7003;43626;53.866;30.298;2022-10-28T04:53:53;24.3;19;10.8
57798;PMS7003;43626;53.866;30.298;2022-10-28T04:58:53;31.8;25;14.8
57798;PMS7003;43626;53.866;30.298;2022-10-28T05:04:05;26.6;22.2;14.4
57798;PMS7003;43626;53.866;30.298;2022-10-28T05:09:39;24.8;18.8;10.6
57798;PMS7003;43626;53.866;30.298;2022-10-28T05:14:11;22.4;18.4;10.4
57798;PMS7003;43626;53.866;30.298;2022-10-28T05:19:27;19;16.8;9.2
57798;PMS7003;43626;53.866;30.298;2022-10-28T05:24:05;21.2;17;10.2
57798;PMS7003;43626;53.866;30.298;2022-10-28T05:28:59;23.6;20.4;11.6
57798;PMS7003;43626;53.866;30.298;2022-10-28T05:34:05;23.8;19;10.8
57798;PMS7003;43626;53.866;30.298;2022-10-28T05:39:25;24.4;21.4;12.4
57798;PMS7003;43626;53.866;30.298;2022-10-28T05:44:29;34.4;28.6;16.4
57798;PMS7003;43626;53.866;30.298;2022-10-28T05:48:51;30.6;25.2;14.6
57798;PMS7003;43626;53.866;30.298;2022-10-28T05:54:03;24.5;20.3;12
57798;PMS7003;43626;53.866;30.298;2022-10-28T05:59:41;25.2;20.2;12.2
57798;PMS7003;43626;53.866;30.298;2022-10-28T06:03:53;26;21.6;12.4
57798;PMS7003;43626;53.866;30.298;2022-10-28T06:09:17;25.2;21.8;12.8
57798;PMS7003;43626;53.866;30.298;2022-10-28T06:14:05;29;22.6;13.4
57798;PMS7003;43626;53.866;30.298;2022-10-28T06:18:53;37.6;30;17.4
57798;PMS7003;43626;53.866;30.298;2022-10-28T06:24:39;23.6;19.2;10.6
57798;PMS7003;43626;53.866;30.298;2022-10-28T06:29:13;34.6;28;17.2
57798;PMS7003;43626;53.866;30.298;2022-10-28T06:34:29;39.4;31.8;20.4
57798;PMS7003;43626;53.866;30.298;2022-10-28T06:38:53;29.2;23.2;13.8
57798;PMS7003;43626;53.866;30.298;2022-10-28T06:44:05;28.8;25.2;14.8
57798;PMS7003;43626;53.866;30.298;2022-10-28T06:49:23;35;28.4;16.8
57798;PMS7003;43626;53.866;30.298;2022-10-28T06:54:29;27.4;23;14.2
57798;PMS7003;43626;53.866;30.298;2022-10-28T06:59:31;24;19.5;10.3
57798;PMS7003;43626;53.866;30.298;2022-10-28T07:03:53;25.4;20.8;12
57798;PMS7003;43626;53.866;30.298;2022-10-28T07:08:51;22.8;19.6;11.2
57798;PMS7003;43626;53.866;30.298;2022-10-28T07:14:39;29;24.4;14.6
57798;PMS7003;43626;53.866;30.298;2022-10-28T07:19:39;27.2;20.4;10.6
57798;PMS7003;43626;53.866;30.298;2022-10-28T07:24:19;25;20.6;10.8
57798;PMS7003;43626;53.866;30.298;2022-10-28T07:29:05;27;20.8;11.2
57798;PMS7003;43626;53.866;30.298;2022-10-28T07:34:05;25.8;19.4;11.4
57798;PMS7003;43626;53.866;30.298;2022-10-28T07:39:39;26;21.2;11.4
57798;PMS7003;43626;53.866;30.298;2022-10-28T07:44:09;25.8;22.2;11.8
57798;PMS7003;43626;53.866;30.298;2022-10-28T07:49:27;47.8;36.2;20.4
57798;PMS7003;43626;53.866;30.298;2022-10-28T07:54:05;39.8;32.4;17.4
57798;PMS7003;43626;53.866;30.298;2022-10-28T07:59:05;35;28.8;14.8
57798;PMS7003;43626;53.866;30.298;2022-10-28T08:04:15;53.8;40.6;25.8
57798;PMS7003;43626;53.866;30.298;2022-10-28T08:09:23;31.6;25.8;14.6
57798;PMS7003;43626;53.866;30.298;2022-10-28T08:14:31;34.4;27.2;15
57798;PMS7003;43626;53.866;30.298;2022-10-28T08:18:53;29.4;24.6;13.2
57798;PMS7003;43626;53.866;30.298;2022-10-28T08:24:05;29.2;24;13.6
57798;PMS7003;43626;53.866;30.298;2022-10-28T08:29:39;33.8;25.8;14.8
57798;PMS7003;43626;53.866;30.298;2022-10-28T08:34:39;35.8;28.8;16.2
57798;PMS7003;43626;53.866;30.298;2022-10-28T08:39:19;32.6;26.2;16.2
57798;PMS7003;43626;53.866;30.298;2022-10-28T08:43:57;43.4;32.6;20.2
57798;PMS7003;43626;53.866;30.298;2022-10-28T08:49:07;37.6;29.6;16.2
57798;PMS7003;43626;53.866;30.298;2022-10-28T08:54:39;32;26;14.8
57798;PMS7003;43626;53.866;30.298;2022-10-28T08:58:53;27;22.5;12
57798;PMS7003;43626;53.866;30.298;2022-10-28T09:04:30;34.2;27;15.4
57798;PMS7003;43626;53.866;30.298;2022-10-28T09:09:03;35.8;27.8;15.4
57798;PMS7003;43626;53.866;30.298;2022-10-28T09:14:27;34.4;27.6;15.6
57798;PMS7003;43626;53.866;30.298;2022-10-28T09:19:22;32.8;27;15.6
57798;PMS7003;43626;53.866;30.298;2022-10-28T09:24:22;31;24.8;14.4
57798;PMS7003;43626;53.866;30.298;2022-10-28T09:29:35;35.2;27.2;14.8
57798;PMS7003;43626;53.866;30.298;2022-10-28T09:34:07;36.2;29;15.6
57798;PMS7003;43626;53.866;30.298;2022-10-28T09:38:51;42.6;31.6;18
57798;PMS7003;43626;53.866;30.298;2022-10-28T09:44:38;39.6;28.6;14.6
57798;PMS7003;43626;53.866;30.298;2022-10-28T09:49:39;35.2;28.4;15
57798;PMS7003;43626;53.866;30.298;2022-10-28T09:54:20;36;28.6;16.2
57798;PMS7003;43626;53.866;30.298;2022-10-28T09:58:54;36.3;30;16.3
57798;PMS7003;43626;53.866;30.298;2022-10-28T10:03:53;40.4;30.4;16.2
57798;PMS7003;43626;53.866;30.298;2022-10-28T10:09:37;39.2;29.4;15.8
57798;PMS7003;43626;53.866;30.298;2022-10-28T10:14:12;43.6;35;20
57798;PMS7003;43626;53.866;30.298;2022-10-28T10:19:27;47.4;35.4;19.8
57798;PMS7003;43626;53.866;30.298;2022-10-28T10:23:53;44.4;33.6;18
57798;PMS7003;43626;53.866;30.298;2022-10-28T10:29:15;36;29.8;15.4
57798;PMS7003;43626;53.866;30.298;2022-10-28T10:34:31;42.2;31.2;18
57798;PMS7003;43626;53.866;30.298;2022-10-28T10:39:25;49.6;36;20
57798;PMS7003;43626;53.866;30.298;2022-10-28T10:44:30;45.2;34.8;18.8
57798;PMS7003;43626;53.866;30.298;2022-10-28T10:49:41;45.8;34.6;19.6
57798;PMS7003;43626;53.866;30.298;2022-10-28T10:53:54;45.2;33.2;18.6
57798;PMS7003;43626;53.866;30.298;2022-10-28T10:59:25;50.8;38;20.8
57798;PMS7003;43626;53.866;30.298;2022-10-28T11:04:14;50.6;37.8;20.4
57798;PMS7003;43626;53.866;30.298;2022-10-28T11:09:38;43.2;32.2;17
57798;PMS7003;43626;53.866;30.298;2022-10-28T11:14:19;44.2;32.8;17.2
57798;PMS7003;43626;53.866;30.298;2022-10-28T11:18:53;43.8;31.8;17.4
57798;PMS7003;43626;53.866;30.298;2022-10-28T11:24:21;49.8;36;19.4
57798;PMS7003;43626;53.866;30.298;2022-10-28T11:29:41;51.2;37.6;20
57798;PMS7003;43626;53.866;30.298;2022-10-28T11:34:45;47.8;35.4;19.2
57798;PMS7003;43626;53.866;30.298;2022-10-28T11:39:40;46.6;35.6;19.8
57798;PMS7003;43626;53.866;30.298;2022-10-28T11:43:53;43.8;34.8;18.8
57798;PMS7003;43626;53.866;30.298;2022-10-28T11:49:36;45.4;33.8;19.2
57798;PMS7003;43626;53.866;30.298;2022-10-28T11:54:34;53.2;38.6;21
57798;PMS7003;43626;53.866;30.298;2022-10-28T11:59:23;51;38.2;21
57798;PMS7003;43626;53.866;30.298;2022-10-28T12:04:36;48.3;35.8;19.5
57798;PMS7003;43626;53.866;30.298;2022-10-28T12:09:19;46.6;35.6;20.4
57798;PMS7003;43626;53.866;30.298;2022-10-28T12:14:27;48.8;36.6;20
57798;PMS7003;43626;53.866;30.298;2022-10-28T12:19:25;51;38.2;19.8
57798;PMS7003;43626;53.866;30.298;2022-10-28T12:24:42;51.2;37.6;21.4
57798;PMS7003;43626;53.866;30.298;2022-10-28T12:28:54;52;38.6;20.8
57798;PMS7003;43626;53.866;30.298;2022-10-28T12:34:00;52.8;39.4;21.8
57798;PMS7003;43626;53.866;30.298;2022-10-28T12:39:18;50.8;36.6;20.8
57798;PMS7003;43626;53.866;30.298;2022-10-28T12:44:41;53.8;40;22
57798;PMS7003;43626;53.866;30.298;2022-10-28T12:49:44;55.6;40.6;22.6
57798;PMS7003;43626;53.866;30.298;2022-10-28T12:54:44;66;48.6;26.2
57798;PMS7003;43626;53.866;30.298;2022-10-28T12:58:53;57;42;24.2
57798;PMS7003;43626;53.866;30.298;2022-10-28T13:04:31;56;42.8;24.5
57798;PMS7003;43626;53.866;30.298;2022-10-28T13:09:35;57.4;43.4;25.8
57798;PMS7003;43626;53.866;30.298;2022-10-28T13:14:21;59.6;45.4;26.4
57798;PMS7003;43626;53.866;30.298;2022-10-28T13:19:43;57.8;43;24.6
57798;PMS7003;43626;53.866;30.298;2022-10-28T13:23:53;55.6;42.2;24.6
57798;PMS7003;43626;53.866;30.298;2022-10-28T13:29:20;60.2;44.6;25.4
57798;PMS7003;43626;53.866;30.298;2022-10-28T13:34:13;58.2;44;25.2
57798;PMS7003;43626;53.866;30.298;2022-10-28T13:39:41;54.6;41.2;23.6
57798;PMS7003;43626;53.866;30.298;2022-10-28T13:44:41;54.2;40.4;22
57798;PMS7003;43626;53.866;30.298;2022-10-28T13:49:41;59.2;44;25.6
57798;PMS7003;43626;53.866;30.298;2022-10-28T13:54:32;65.2;46.4;27.4
57798;PMS7003;43626;53.866;30.298;2022-10-28T13:59:45;62.2;46.2;27.8
57798;PMS7003;43626;53.866;30.298;2022-10-28T14:04:37;61;46.3;26.8
57798;PMS7003;43626;53.866;30.298;2022-10-28T14:09:39;61.6;45;26
57798;PMS7003;43626;53.866;30.298;2022-10-28T14:13:54;58;42.4;24.8
57798;PMS7003;43626;53.866;30.298;2022-10-28T14:19:29;59.4;44;25.8
57798;PMS7003;43626;53.866;30.298;2022-10-28T14:24:30;61.8;45.2;26.4
57798;PMS7003;43626;53.866;30.298;2022-10-28T14:29:26;63;46.2;26
57798;PMS7003;43626;53.866;30.298;2022-10-28T14:34:42;70.6;52.6;30.2
57798;PMS7003;43626;53.866;30.298;2022-10-28T14:39:12;69.2;52;29.8
57798;PMS7003;43626;53.866;30.298;2022-10-28T14:44:33;74.6;58.2;32
57798;PMS7003;43626;53.866;30.298;2022-10-28T14:49:13;82.4;64.6;33.4
57798;PMS7003;43626;53.866;30.298;2022-10-28T14:54:30;67.6;49;26.8
57798;PMS7003;43626;53.866;30.298;2022-10-28T14:59:21;66.6;47.8;27
57798;PMS7003;43626;53.866;30.298;2022-10-28T15:03:54;63.3;47;26.3
57798;PMS7003;43626;53.866;30.298;2022-10-28T15:09:30;60.4;46.4;26.8
57798;PMS7003;43626;53.866;30.298;2022-10-28T15:14:24;66;48.8;28.2
57798;PMS7003;43626;53.866;30.298;2022-10-28T15:19:39;67.2;49.4;28.2
57798;PMS7003;43626;53.866;30.298;2022-10-28T15:24:41;64.6;48;27.6
57798;PMS7003;43626;53.866;30.298;2022-10-28T15:28:53;84;64;32.8
57798;PMS7003;43626;53.866;30.298;2022-10-28T15:34:29;93.4;74;37.2
57798;PMS7003;43626;53.866;30.298;2022-10-28T15:39:27;72.2;54;30.2
57798;PMS7003;43626;53.866;30.298;2022-10-28T15:44:31;65.8;47.2;27.4
57798;PMS7003;43626;53.866;30.298;2022-10-28T15:49:41;66.8;49.2;28.8
57798;PMS7003;43626;53.866;30.298;2022-10-28T15:54:17;67.4;49.6;28.8
57798;PMS7003;43626;53.866;30.298;2022-10-28T15:59:39;67;49.4;28.8
57798;PMS7003;43626;53.866;30.298;2022-10-28T16:03:59;66.3;49.8;29.5
57798;PMS7003;43626;53.866;30.298;2022-10-28T16:09:26;66.8;49.6;29
57798;PMS7003;43626;53.866;30.298;2022-10-28T16:14:06;65.8;48.8;28.8
57798;PMS7003;43626;53.866;30.298;2022-10-28T16:19:07;62.8;46.2;27.6
57798;PMS7003;43626;53.866;30.298;2022-10-28T16:23:54;65.6;48.6;28.4
57798;PMS7003;43626;53.866;30.298;2022-10-28T16:29:27;62.2;46;26.6
57798;PMS7003;43626;53.866;30.298;2022-10-28T16:34:13;59;44.4;25.8
57798;PMS7003;43626;53.866;30.298;2022-10-28T16:39:39;55.4;41.6;23
57798;PMS7003;43626;53.866;30.298;2022-10-28T16:44:03;48.2;36;20.2
57798;PMS7003;43626;53.866;30.298;2022-10-28T16:49:29;44.4;33;19.6
57798;PMS7003;43626;53.866;30.298;2022-10-28T16:54:25;39;31;18.2
57798;PMS7003;43626;53.866;30.298;2022-10-28T16:59:27;38.8;30.2;17
57798;PMS7003;43626;53.866;30.298;2022-10-28T17:04:41;45.2;34.4;20.2
57798;PMS7003;43626;53.866;30.298;2022-10-28T17:08:51;44.8;34.8;19.8
57798;PMS7003;43626;53.866;30.298;2022-10-28T17:14:37;47.2;34.6;20.6
57798;PMS7003;43626;53.866;30.298;2022-10-28T17:18:57;43.8;33.8;19.8
57798;PMS7003;43626;53.866;30.298;2022-10-28T17:24:25;42;31.4;18.2
57798;PMS7003;43626;53.866;30.298;2022-10-28T17:29:17;38.6;31;17.4
57798;PMS7003;43626;53.866;30.298;2022-10-28T17:34:05;36.2;29.4;16.6
57798;PMS7003;43626;53.866;30.298;2022-10-28T17:38:53;40.4;30.2;18.6
57798;PMS7003;43626;53.866;30.298;2022-10-28T17:44:27;45.4;34.6;20
57798;PMS7003;43626;53.866;30.298;2022-10-28T17:49:13;48.2;36.4;21.4
57798;PMS7003;43626;53.866;30.298;2022-10-28T17:54:41;37.6;29.2;16
57798;PMS7003;43626;53.866;30.298;2022-10-28T17:59:05;36.8;29;16.6
57798;PMS7003;43626;53.866;30.298;2022-10-28T18:04:31;35;28.4;16
57798;PMS7003;43626;53.866;30.298;2022-10-28T18:09:26;34.5;27.5;15.3
57798;PMS7003;43626;53.866;30.298;2022-10-28T18:14:25;38.4;29.6;16.4
57798;PMS7003;43626;53.866;30.298;2022-10-28T18:19:41;37.4;29.8;16.2
57798;PMS7003;43626;53.866;30.298;2022-10-28T18:23:53;43.2;32.2;19.6
57798;PMS7003;43626;53.866;30.298;2022-10-28T18:29:41;44.6;33.8;19.4
57798;PMS7003;43626;53.866;30.298;2022-10-28T18:34:13;42;33.2;19.2
57798;PMS7003;43626;53.866;30.298;2022-10-28T18:39:13;44.6;34.2;19.2
57798;PMS7003;43626;53.866;30.298;2022-10-28T18:44:17;44;32.6;18.8
57798;PMS7003;43626;53.866;30.298;2022-10-28T18:49:05;42.8;33.8;19.6
57798;PMS7003;43626;53.866;30.298;2022-10-28T18:54:18;42.2;33;18
57798;PMS7003;43626;53.866;30.298;2022-10-28T18:59:25;38.6;30.2;17.4
57798;PMS7003;43626;53.866;30.298;2022-10-28T19:04:12;38.4;30;17
57798;PMS7003;43626;53.866;30.298;2022-10-28T19:09:39;39.3;30.5;16
57798;PMS7003;43626;53.866;30.298;2022-10-28T19:13:53;37.4;27.4;15.6
57798;PMS7003;43626;53.866;30.298;2022-10-28T19:19:41;36.2;29.4;16.2
57798;PMS7003;43626;53.866;30.298;2022-10-28T19:24:27;38.6;30.8;17.4
57798;PMS7003;43626;53.866;30.298;2022-10-28T19:29:27;35.6;28;15.6
57798;PMS7003;43626;53.866;30.298;2022-10-28T19:34:39;32;27;15.6
57798;PMS7003;43626;53.866;30.298;2022-10-28T19:39:17;37.6;29.2;15.6
57798;PMS7003;43626;53.866;30.298;2022-10-28T19:44:41;37.2;29.8;16.2
57798;PMS7003;43626;53.866;30.298;2022-10-28T19:49:25;34.4;28.2;15.6
57798;PMS7003;43626;53.866;30.298;2022-10-28T19:54:15;36.6;29.2;16.2
57798;PMS7003;43626;53.866;30.298;2022-10-28T19:59:31;35.4;27.8;15.4
57798;PMS7003;43626;53.866;30.298;2022-10-28T20:04:05;38.6;29.8;16.8
57798;PMS7003;43626;53.866;30.298;2022-10-28T20:09:15;38;29.8;16.5
57798;PMS7003;43626;53.866;30.298;2022-10-28T20:14:27;38.2;30.4;15.8
57798;PMS7003;43626;53.866;30.298;2022-10-28T20:19:13;38;30;17.2
57798;PMS7003;43626;53.866;30.298;2022-10-28T20:24:41;37.6;30.6;16.8
57798;PMS7003;43626;53.866;30.298;2022-10-28T20:29:05;38;30.6;17.6
57798;PMS7003;43626;53.866;30.298;2022-10-28T20:34:31;37;28.4;16.4
57798;PMS7003;43626;53.866;30.298;2022-10-28T20:39:23;35.8;29.6;16.4
57798;PMS7003;43626;53.866;30.298;2022-10-28T20:44:25;39.4;30.4;16.8
57798;PMS7003;43626;53.866;30.298;2022-10-28T20:49:41;36.2;29.4;16.2
57798;PMS7003;43626;53.866;30.298;2022-10-28T20:53:53;40.4;31;16.2
57798;PMS7003;43626;53.866;30.298;2022-10-28T20:59:39;40.8;32;19.2
57798;PMS7003;43626;53.866;30.298;2022-10-28T21:03:54;38.2;31;17.6
57798;PMS7003;43626;53.866;30.298;2022-10-28T21:09:23;40.3;30.3;17.5
57798;PMS7003;43626;53.866;30.298;2022-10-28T21:14:15;37.8;31;18
57798;PMS7003;43626;53.866;30.298;2022-10-28T21:19:05;39.8;31;17.4
57798;PMS7003;43626;53.866;30.298;2022-10-28T21:24:05;42.8;31.8;17.2
57798;PMS7003;43626;53.866;30.298;2022-10-28T21:29:27;38.6;31;17.6
57798;PMS7003;43626;53.866;30.298;2022-10-28T21:34:13;40.2;31.4;16.8
57798;PMS7003;43626;53.866;30.298;2022-10-28T21:39:39;40.2;31.6;18.4
57798;PMS7003;43626;53.866;30.298;2022-10-28T21:43:52;42.6;32.8;18.6
57798;PMS7003;43626;53.866;30.298;2022-10-28T21:49:27;42.4;32.6;17.6
57798;PMS7003;43626;53.866;30.298;2022-10-28T21:54:27;42.2;33.2;17.4
57798;PMS7003;43626;53.866;30.298;2022-10-28T21:59:23;39.8;30.8;17.4
57798;PMS7003;43626;53.866;30.298;2022-10-28T22:04:37;42.6;33.2;18.8
57798;PMS7003;43626;53.866;30.298;2022-10-28T22:08:59;41.8;31.6;17.8
57798;PMS7003;43626;53.866;30.298;2022-10-28T22:14:35;45;32.5;18
57798;PMS7003;43626;53.866;30.298;2022-10-28T22:19:11;41;32.2;18.2
57798;PMS7003;43626;53.866;30.298;2022-10-28T22:24:23;39;31.2;17.6
57798;PMS7003;43626;53.866;30.298;2022-10-28T22:28:53;43.6;33.6;18.6
57798;PMS7003;43626;53.866;30.298;2022-10-28T22:33:53;43;32;17.6
57798;PMS7003;43626;53.866;30.298;2022-10-28T22:39:11;41;31.2;17.2
57798;PMS7003;43626;53.866;30.298;2022-10-28T22:44:21;40.4;31.2;17
57798;PMS7003;43626;53.866;30.298;2022-10-28T22:48:53;42;32.6;17
57798;PMS7003;43626;53.866;30.298;2022-10-28T22:54:37;42.4;32.4;16.8
57798;PMS7003;43626;53.866;30.298;2022-10-28T22:59:13;36.8;29.2;16.4
57798;PMS7003;43626;53.866;30.298;2022-10-28T23:04:25;39;30.6;16.8
57798;PMS7003;43626;53.866;30.298;2022-10-28T23:09:23;40.8;31.4;16.8
57798;PMS7003;43626;53.866;30.298;2022-10-28T23:14:21;41.3;30;16.3
57798;PMS7003;43626;53.866;30.298;2022-10-28T23:19:37;41.6;31;16.2
57798;PMS7003;43626;53.866;30.298;2022-10-28T23:23:54;36.8;30.4;17
57798;PMS7003;43626;53.866;30.298;2022-10-28T23:29:35;39.2;30.2;16.2
57798;PMS7003;43626;53.866;30.298;2022-10-28T23:34:07;42;31.8;17.2
57798;PMS7003;43626;53.866;30.298;2022-10-28T23:39:21;41.2;31.4;15.4
57798;PMS7003;43626;53.866;30.298;2022-10-28T23:43:59;40.6;31.6;16.4
57798;PMS7003;43626;53.866;30.298;2022-10-28T23:49:01;40.6;32;17.6
57798;PMS7003;43626;53.866;30.298;2022-10-28T23:53:53;39.4;30.8;16.4
57798;PMS7003;43626;53.866;30.298;2022-10-28T23:59:37;42.8;33;18
